Argus, CA

2:38 PM PDT on August 22, 2014 (GMT -0700)
Searles Valley | Change Station
CLOSE
Current Station
Personal Weather Station
Location: Trona, CA
Elevation: 1696 ft
Nearby Weather Stations

Elev 1696 ft 35.77 °N, 117.38 °W | Updated 6 seconds ago

Clear
Clear
102.9 °F
Feels Like 99 °F
N
10.7
Wind Variable Wind from SSW
Gusts 19.7 mph

Today
High -- | Low -- °F
--% Chance of Precip.
Yesterday
High -- | Low -- °F
Precip. -- in
6:13 AM 7:30 PM
Waning Crescent, 6% visible
Pressure 29.76 in
Visibility 10.0 miles
Clouds Clear
Heat Index 99 °F
Dew Point 45 °F
Humidity 14%
Rainfall 0.00 in
Snow Depth Not available.
UV 10 out of 12
Pollen 8.50 out of 12
Ozone Good
Flu Activity Not available.
METAR KNID 222056Z 21017G31KT 10SM CLR 37/04 A2983 RMK AO2 PK WND 19031/2056 SLP077 T03720044 58027 $

More Conditions Fewer Conditions

Pressure 29.76 in
Visibility 10.0 miles
Clouds Clear
Heat Index 99 °F
Dew Point 45 °F
Humidity 14%
Rainfall 0.00 in
Snow Depth Not available.
UV 10 out of 12
Pollen 8.50 out of 12
Ozone Good
Flu Activity Not available.
METAR KNID 222056Z 21017G31KT 10SM CLR 37/04 A2983 RMK AO2 PK WND 19031/2056 SLP077 T03720044 58027 $

More Conditions Fewer Conditions

10-Day Weather Forecast

Almanac

Astronomy

Aug. 22, 2014 Rise Set
Actual Time 6:13 AM PDT 7:30 PM PDT
Civil Twilight 5:47 AM PDT 7:56 PM PDT
Nautical Twilight 5:15 AM PDT 8:28 PM PDT
Astronomical Twilight 4:42 AM PDT 9:01 PM PDT
Moon 3:43 AM PDT 5:39 PM PDT
Length of Visible Light 14h 09m
Length of Day
13h 16m
Tomorrow will be 2m 4s shorter.
Waning Crescent, 6% of the Moon is Illuminated
Today
Waning Crescent
Aug 25
New
Sep 2
First Quarter
Sep 8
Full
Sep 15
Last Quarter

Today's Extremes

State Highs State Lows

Community

WunderPhotos

Upload Photos

1,746,259 photos uploaded!

Nearby

Air Quality

  Air Quality AQ Index Pollutant
Yesterday Good
OZONE
Yesterday Good
PM10
Current Good
OZONE
Saturday Good
PM10
Saturday Good
OZONE
Saturday Good
CO
Saturday Good
NO2

Snow Depth

Station Depth Elevation
Leavitt Meadows 1 in 7200 ft
Summit Meadow 0 in 9122 ft
Monitor Pass 0 in 8350 ft
Echo Peak 0 in 7800 ft
Tahoe City Cross 0 in 6750 ft

Earthquake Activity

City Distance Mag. Time & Date
Big Bear City, California 103 miles 3.7 9:55 PM PDT
2014-08-17
Minimum magnitude displayed is 2.5.

Coastal Water Temperatures

Place Temperature
No Stations Reporting

Nearby Weather Stations